sensor_id;sensor_type;location;lat;lon;timestamp;temperature;humidity
12446;DHT22;6287;50.984;7.022;2024-01-30T00:00:31;7.40;99.90
12446;DHT22;6287;50.984;7.022;2024-01-30T00:02:59;7.40;99.90
12446;DHT22;6287;50.984;7.022;2024-01-30T00:05:29;7.40;99.90
12446;DHT22;6287;50.984;7.022;2024-01-30T00:07:55;7.40;99.90
12446;DHT22;6287;50.984;7.022;2024-01-30T00:10:20;7.30;99.90
12446;DHT22;6287;50.984;7.022;2024-01-30T00:12:46;7.40;99.90
12446;DHT22;6287;50.984;7.022;2024-01-30T00:17:38;7.30;99.90
12446;DHT22;6287;50.984;7.022;2024-01-30T00:20:04;7.30;99.90
12446;DHT22;6287;50.984;7.022;2024-01-30T00:22:34;7.20;99.90
12446;DHT22;6287;50.984;7.022;2024-01-30T00:25:00;7.10;99.90
12446;DHT22;6287;50.984;7.022;2024-01-30T00:27:26;7.10;99.90
12446;DHT22;6287;50.984;7.022;2024-01-30T00:29:57;7.10;99.90
12446;DHT22;6287;50.984;7.022;2024-01-30T00:37:14;7.00;99.90
12446;DHT22;6287;50.984;7.022;2024-01-30T00:39:42;6.90;99.90
12446;DHT22;6287;50.984;7.022;2024-01-30T00:42:08;6.90;99.90
12446;DHT22;6287;50.984;7.022;2024-01-30T00:44:39;6.90;99.90
12446;DHT22;6287;50.984;7.022;2024-01-30T00:47:05;6.90;99.90
12446;DHT22;6287;50.984;7.022;2024-01-30T00:54:25;6.80;99.90
12446;DHT22;6287;50.984;7.022;2024-01-30T00:56:54;6.80;99.90
12446;DHT22;6287;50.984;7.022;2024-01-30T00:59:19;6.80;99.90
12446;DHT22;6287;50.984;7.022;2024-01-30T01:01:49;6.80;99.90
12446;DHT22;6287;50.984;7.022;2024-01-30T01:04:17;6.80;99.90
12446;DHT22;6287;50.984;7.022;2024-01-30T01:06:43;6.80;99.90
12446;DHT22;6287;50.984;7.022;2024-01-30T01:09:11;6.80;99.90
12446;DHT22;6287;50.984;7.022;2024-01-30T01:11:39;6.80;99.90
12446;DHT22;6287;50.984;7.022;2024-01-30T01:14:07;6.80;99.90
12446;DHT22;6287;50.984;7.022;2024-01-30T01:16:35;6.80;99.90
12446;DHT22;6287;50.984;7.022;2024-01-30T01:23:52;6.80;99.90
12446;DHT22;6287;50.984;7.022;2024-01-30T01:26:20;6.80;99.90
12446;DHT22;6287;50.984;7.022;2024-01-30T01:31:15;6.80;99.90
12446;DHT22;6287;50.984;7.022;2024-01-30T01:33:45;6.80;99.90
12446;DHT22;6287;50.984;7.022;2024-01-30T01:36:16;6.80;99.90
12446;DHT22;6287;50.984;7.022;2024-01-30T01:38:41;6.90;99.90
12446;DHT22;6287;50.984;7.022;2024-01-30T01:41:11;6.90;99.90
12446;DHT22;6287;50.984;7.022;2024-01-30T01:43:43;6.90;99.90
12446;DHT22;6287;50.984;7.022;2024-01-30T01:46:09;6.90;99.90
12446;DHT22;6287;50.984;7.022;2024-01-30T01:51:03;6.90;99.90
12446;DHT22;6287;50.984;7.022;2024-01-30T01:53:29;6.90;99.90
12446;DHT22;6287;50.984;7.022;2024-01-30T01:55:58;6.90;99.90
12446;DHT22;6287;50.984;7.022;2024-01-30T01:58:27;6.90;99.90
12446;DHT22;6287;50.984;7.022;2024-01-30T02:00:58;7.00;99.90
12446;DHT22;6287;50.984;7.022;2024-01-30T02:03:26;6.90;99.90
12446;DHT22;6287;50.984;7.022;2024-01-30T02:05:52;7.00;99.90
12446;DHT22;6287;50.984;7.022;2024-01-30T02:08:25;7.00;99.90
12446;DHT22;6287;50.984;7.022;2024-01-30T02:13:22;7.10;99.90
12446;DHT22;6287;50.984;7.022;2024-01-30T02:15:51;7.10;99.90
12446;DHT22;6287;50.984;7.022;2024-01-30T02:23:10;7.20;99.90
12446;DHT22;6287;50.984;7.022;2024-01-30T02:25:42;7.20;99.90
12446;DHT22;6287;50.984;7.022;2024-01-30T02:28:14;7.20;99.90
12446;DHT22;6287;50.984;7.022;2024-01-30T02:30:45;7.30;99.90
12446;DHT22;6287;50.984;7.022;2024-01-30T02:33:12;7.30;99.90
12446;DHT22;6287;50.984;7.022;2024-01-30T02:35:40;7.30;99.90
12446;DHT22;6287;50.984;7.022;2024-01-30T02:38:05;7.30;99.90
12446;DHT22;6287;50.984;7.022;2024-01-30T02:40:31;7.30;99.90
12446;DHT22;6287;50.984;7.022;2024-01-30T02:42:59;7.40;99.90
12446;DHT22;6287;50.984;7.022;2024-01-30T02:45:29;7.40;99.90
12446;DHT22;6287;50.984;7.022;2024-01-30T02:47:57;7.40;99.90
12446;DHT22;6287;50.984;7.022;2024-01-30T02:50:22;7.50;99.90
12446;DHT22;6287;50.984;7.022;2024-01-30T02:52:48;7.50;99.90
12446;DHT22;6287;50.984;7.022;2024-01-30T03:00:13;7.60;99.90
12446;DHT22;6287;50.984;7.022;2024-01-30T03:02:41;7.70;99.90
12446;DHT22;6287;50.984;7.022;2024-01-30T03:05:07;7.70;99.90
12446;DHT22;6287;50.984;7.022;2024-01-30T03:10:01;7.80;99.90
12446;DHT22;6287;50.984;7.022;2024-01-30T03:12:27;7.80;99.90
12446;DHT22;6287;50.984;7.022;2024-01-30T03:14:55;7.90;99.90
12446;DHT22;6287;50.984;7.022;2024-01-30T03:19:50;8.00;99.90
12446;DHT22;6287;50.984;7.022;2024-01-30T03:24:44;8.00;99.90
12446;DHT22;6287;50.984;7.022;2024-01-30T03:27:12;8.00;99.90
12446;DHT22;6287;50.984;7.022;2024-01-30T03:29:40;8.10;99.90
12446;DHT22;6287;50.984;7.022;2024-01-30T03:32:06;8.10;99.90
12446;DHT22;6287;50.984;7.022;2024-01-30T03:34:33;8.10;99.90
12446;DHT22;6287;50.984;7.022;2024-01-30T03:36:59;8.00;99.90
12446;DHT22;6287;50.984;7.022;2024-01-30T03:41:53;8.10;99.90
12446;DHT22;6287;50.984;7.022;2024-01-30T03:44:23;8.10;99.90
12446;DHT22;6287;50.984;7.022;2024-01-30T03:46:49;8.10;99.90
12446;DHT22;6287;50.984;7.022;2024-01-30T03:49:17;8.10;99.90
12446;DHT22;6287;50.984;7.022;2024-01-30T03:51:45;8.10;99.90
12446;DHT22;6287;50.984;7.022;2024-01-30T03:54:15;8.00;99.90
12446;DHT22;6287;50.984;7.022;2024-01-30T03:56:43;8.10;99.90
12446;DHT22;6287;50.984;7.022;2024-01-30T03:59:09;8.00;99.90
12446;DHT22;6287;50.984;7.022;2024-01-30T04:01:37;8.00;99.90
12446;DHT22;6287;50.984;7.022;2024-01-30T04:04:02;8.00;99.90
12446;DHT22;6287;50.984;7.022;2024-01-30T04:08:56;7.90;99.90
12446;DHT22;6287;50.984;7.022;2024-01-30T04:11:22;7.90;99.90
12446;DHT22;6287;50.984;7.022;2024-01-30T04:16:21;7.90;99.90
12446;DHT22;6287;50.984;7.022;2024-01-30T04:18:49;7.90;99.90
12446;DHT22;6287;50.984;7.022;2024-01-30T04:21:20;7.90;99.90
12446;DHT22;6287;50.984;7.022;2024-01-30T04:23:45;7.90;99.90
12446;DHT22;6287;50.984;7.022;2024-01-30T04:26:14;7.80;99.90
12446;DHT22;6287;50.984;7.022;2024-01-30T04:28:41;7.80;99.90
12446;DHT22;6287;50.984;7.022;2024-01-30T04:33:38;7.80;99.90
12446;DHT22;6287;50.984;7.022;2024-01-30T04:36:08;7.80;99.90
12446;DHT22;6287;50.984;7.022;2024-01-30T04:45:53;7.70;99.90
12446;DHT22;6287;50.984;7.022;2024-01-30T04:48:18;7.70;99.90
12446;DHT22;6287;50.984;7.022;2024-01-30T04:50:44;7.60;99.90
12446;DHT22;6287;50.984;7.022;2024-01-30T04:53:10;7.60;99.90
12446;DHT22;6287;50.984;7.022;2024-01-30T04:55:40;7.60;99.90
12446;DHT22;6287;50.984;7.022;2024-01-30T04:58:06;7.60;99.90
12446;DHT22;6287;50.984;7.022;2024-01-30T05:00:31;7.60;99.90
12446;DHT22;6287;50.984;7.022;2024-01-30T05:02:59;7.50;99.90
12446;DHT22;6287;50.984;7.022;2024-01-30T05:07:55;7.40;99.90
12446;DHT22;6287;50.984;7.022;2024-01-30T05:10:23;7.40;99.90
12446;DHT22;6287;50.984;7.022;2024-01-30T05:12:49;7.40;99.90
12446;DHT22;6287;50.984;7.022;2024-01-30T05:15:18;7.40;99.90
12446;DHT22;6287;50.984;7.022;2024-01-30T05:20:12;7.40;99.90
12446;DHT22;6287;50.984;7.022;2024-01-30T05:22:42;7.30;99.90
12446;DHT22;6287;50.984;7.022;2024-01-30T05:25:11;7.30;99.90
12446;DHT22;6287;50.984;7.022;2024-01-30T05:27:39;7.30;99.90
12446;DHT22;6287;50.984;7.022;2024-01-30T05:30:07;7.30;99.90
12446;DHT22;6287;50.984;7.022;2024-01-30T05:32:34;7.30;99.90
12446;DHT22;6287;50.984;7.022;2024-01-30T05:35:04;7.30;99.90
12446;DHT22;6287;50.984;7.022;2024-01-30T05:37:32;7.30;99.90
12446;DHT22;6287;50.984;7.022;2024-01-30T05:40:00;7.30;99.90
12446;DHT22;6287;50.984;7.022;2024-01-30T05:42:26;7.20;99.90
12446;DHT22;6287;50.984;7.022;2024-01-30T05:44:54;7.20;99.90
12446;DHT22;6287;50.984;7.022;2024-01-30T05:47:20;7.20;99.90
12446;DHT22;6287;50.984;7.022;2024-01-30T05:49:45;7.20;99.90
12446;DHT22;6287;50.984;7.022;2024-01-30T05:52:11;7.20;99.90
12446;DHT22;6287;50.984;7.022;2024-01-30T05:54:37;7.20;99.90
12446;DHT22;6287;50.984;7.022;2024-01-30T05:57:02;7.20;99.90
12446;DHT22;6287;50.984;7.022;2024-01-30T05:59:30;7.20;99.90
12446;DHT22;6287;50.984;7.022;2024-01-30T06:01:58;7.20;99.90
12446;DHT22;6287;50.984;7.022;2024-01-30T06:04:26;7.10;99.90
12446;DHT22;6287;50.984;7.022;2024-01-30T06:06:52;8.20;99.90
12446;DHT22;6287;50.984;7.022;2024-01-30T06:09:17;7.20;99.90
12446;DHT22;6287;50.984;7.022;2024-01-30T06:11:45;7.20;99.90
12446;DHT22;6287;50.984;7.022;2024-01-30T06:14:11;7.20;99.90
12446;DHT22;6287;50.984;7.022;2024-01-30T06:16:39;7.20;99.90
12446;DHT22;6287;50.984;7.022;2024-01-30T06:19:07;7.20;99.90
12446;DHT22;6287;50.984;7.022;2024-01-30T06:21:32;7.20;99.90
12446;DHT22;6287;50.984;7.022;2024-01-30T06:24:02;7.20;99.90
12446;DHT22;6287;50.984;7.022;2024-01-30T06:26:28;7.20;99.90
12446;DHT22;6287;50.984;7.022;2024-01-30T06:28:56;7.10;99.90
12446;DHT22;6287;50.984;7.022;2024-01-30T06:31:21;7.10;99.90
12446;DHT22;6287;50.984;7.022;2024-01-30T06:33:52;7.20;99.90
12446;DHT22;6287;50.984;7.022;2024-01-30T06:36:18;7.20;99.90
12446;DHT22;6287;50.984;7.022;2024-01-30T06:38:44;7.20;99.90
12446;DHT22;6287;50.984;7.022;2024-01-30T06:41:12;7.20;99.90
12446;DHT22;6287;50.984;7.022;2024-01-30T06:43:40;7.20;99.90
12446;DHT22;6287;50.984;7.022;2024-01-30T06:46:08;7.20;99.90
12446;DHT22;6287;50.984;7.022;2024-01-30T06:51:02;7.30;99.90
12446;DHT22;6287;50.984;7.022;2024-01-30T06:53:28;7.30;99.90
12446;DHT22;6287;50.984;7.022;2024-01-30T06:55:53;7.30;99.90
12446;DHT22;6287;50.984;7.022;2024-01-30T06:58:21;7.30;99.90
12446;DHT22;6287;50.984;7.022;2024-01-30T07:00:47;7.40;99.90
12446;DHT22;6287;50.984;7.022;2024-01-30T07:03:12;7.40;99.90
12446;DHT22;6287;50.984;7.022;2024-01-30T07:05:40;7.50;99.90
12446;DHT22;6287;50.984;7.022;2024-01-30T07:08:06;7.50;99.90
12446;DHT22;6287;50.984;7.022;2024-01-30T07:10:34;7.50;99.90
12446;DHT22;6287;50.984;7.022;2024-01-30T07:13:01;7.50;99.90
12446;DHT22;6287;50.984;7.022;2024-01-30T07:15:26;7.60;99.90
12446;DHT22;6287;50.984;7.022;2024-01-30T07:17:52;7.60;99.90
12446;DHT22;6287;50.984;7.022;2024-01-30T07:20:17;7.70;99.90
12446;DHT22;6287;50.984;7.022;2024-01-30T07:22:47;7.70;99.90
12446;DHT22;6287;50.984;7.022;2024-01-30T07:25:13;7.70;99.90
12446;DHT22;6287;50.984;7.022;2024-01-30T07:27:39;7.80;99.90
12446;DHT22;6287;50.984;7.022;2024-01-30T07:30:05;7.80;99.90
12446;DHT22;6287;50.984;7.022;2024-01-30T07:32:31;7.80;99.90
12446;DHT22;6287;50.984;7.022;2024-01-30T07:34:59;7.80;99.90
12446;DHT22;6287;50.984;7.022;2024-01-30T07:37:25;7.80;99.90
12446;DHT22;6287;50.984;7.022;2024-01-30T07:39:50;7.80;99.90
12446;DHT22;6287;50.984;7.022;2024-01-30T07:42:18;7.90;99.90
12446;DHT22;6287;50.984;7.022;2024-01-30T07:44:46;7.90;99.90
12446;DHT22;6287;50.984;7.022;2024-01-30T07:47:12;7.90;99.90
12446;DHT22;6287;50.984;7.022;2024-01-30T07:49:37;7.90;99.90
12446;DHT22;6287;50.984;7.022;2024-01-30T07:52:05;8.00;99.90
12446;DHT22;6287;50.984;7.022;2024-01-30T07:54:34;8.00;99.90
12446;DHT22;6287;50.984;7.022;2024-01-30T07:57:07;8.00;99.90
12446;DHT22;6287;50.984;7.022;2024-01-30T07:59:33;8.00;99.90
12446;DHT22;6287;50.984;7.022;2024-01-30T08:01:58;8.10;99.90
12446;DHT22;6287;50.984;7.022;2024-01-30T08:04:24;8.10;99.90
12446;DHT22;6287;50.984;7.022;2024-01-30T08:06:52;8.10;99.90
12446;DHT22;6287;50.984;7.022;2024-01-30T08:09:17;8.10;99.90
12446;DHT22;6287;50.984;7.022;2024-01-30T08:11:45;8.20;99.90
12446;DHT22;6287;50.984;7.022;2024-01-30T08:14:11;8.20;99.90
12446;DHT22;6287;50.984;7.022;2024-01-30T08:16:38;8.30;99.90
12446;DHT22;6287;50.984;7.022;2024-01-30T08:19:04;8.30;99.90
12446;DHT22;6287;50.984;7.022;2024-01-30T08:21:30;8.30;99.90
12446;DHT22;6287;50.984;7.022;2024-01-30T08:23:55;8.30;99.90
12446;DHT22;6287;50.984;7.022;2024-01-30T08:26:21;8.30;99.90
12446;DHT22;6287;50.984;7.022;2024-01-30T08:28:47;8.30;99.90
12446;DHT22;6287;50.984;7.022;2024-01-30T08:31:14;8.40;99.90
12446;DHT22;6287;50.984;7.022;2024-01-30T08:33:40;8.40;99.90
12446;DHT22;6287;50.984;7.022;2024-01-30T08:36:06;8.40;99.90
12446;DHT22;6287;50.984;7.022;2024-01-30T08:38:31;8.50;99.90
12446;DHT22;6287;50.984;7.022;2024-01-30T08:40:57;8.50;99.90
12446;DHT22;6287;50.984;7.022;2024-01-30T08:43:23;8.50;99.90
12446;DHT22;6287;50.984;7.022;2024-01-30T08:45:50;8.50;99.90
12446;DHT22;6287;50.984;7.022;2024-01-30T08:48:16;8.60;99.90
12446;DHT22;6287;50.984;7.022;2024-01-30T08:50:45;8.70;99.90
12446;DHT22;6287;50.984;7.022;2024-01-30T08:53:15;8.80;99.90
12446;DHT22;6287;50.984;7.022;2024-01-30T08:55:41;8.90;99.90
12446;DHT22;6287;50.984;7.022;2024-01-30T08:58:11;8.90;99.90
12446;DHT22;6287;50.984;7.022;2024-01-30T09:00:37;9.00;99.90
12446;DHT22;6287;50.984;7.022;2024-01-30T09:03:06;8.90;99.90
12446;DHT22;6287;50.984;7.022;2024-01-30T09:05:31;9.10;99.90
12446;DHT22;6287;50.984;7.022;2024-01-30T09:07:59;9.20;99.90
12446;DHT22;6287;50.984;7.022;2024-01-30T09:10:27;9.20;99.90
12446;DHT22;6287;50.984;7.022;2024-01-30T09:12:57;9.30;99.90
12446;DHT22;6287;50.984;7.022;2024-01-30T09:15:27;9.40;99.90
12446;DHT22;6287;50.984;7.022;2024-01-30T09:17:55;9.40;99.90
12446;DHT22;6287;50.984;7.022;2024-01-30T09:20:23;9.60;99.90
12446;DHT22;6287;50.984;7.022;2024-01-30T09:22:51;9.60;99.90
12446;DHT22;6287;50.984;7.022;2024-01-30T09:25:19;9.70;99.90
12446;DHT22;6287;50.984;7.022;2024-01-30T09:27:47;9.80;99.90
12446;DHT22;6287;50.984;7.022;2024-01-30T09:30:13;9.90;99.90
12446;DHT22;6287;50.984;7.022;2024-01-30T09:32:40;10.10;99.90
12446;DHT22;6287;50.984;7.022;2024-01-30T09:35:08;10.10;99.90
12446;DHT22;6287;50.984;7.022;2024-01-30T09:37:33;10.20;99.90
12446;DHT22;6287;50.984;7.022;2024-01-30T09:39:59;10.30;99.90
12446;DHT22;6287;50.984;7.022;2024-01-30T09:42:34;10.30;99.90
12446;DHT22;6287;50.984;7.022;2024-01-30T09:45:03;10.40;99.90
12446;DHT22;6287;50.984;7.022;2024-01-30T09:47:40;10.40;99.90
12446;DHT22;6287;50.984;7.022;2024-01-30T09:50:06;10.50;99.90
12446;DHT22;6287;50.984;7.022;2024-01-30T09:52:32;10.40;99.90
12446;DHT22;6287;50.984;7.022;2024-01-30T09:55:02;10.40;99.90
12446;DHT22;6287;50.984;7.022;2024-01-30T09:57:28;10.50;99.90
12446;DHT22;6287;50.984;7.022;2024-01-30T09:59:54;10.60;99.90
12446;DHT22;6287;50.984;7.022;2024-01-30T10:02:20;10.60;99.90
12446;DHT22;6287;50.984;7.022;2024-01-30T10:04:49;10.70;99.90
12446;DHT22;6287;50.984;7.022;2024-01-30T10:07:18;10.70;99.90
12446;DHT22;6287;50.984;7.022;2024-01-30T10:09:49;10.80;99.90
12446;DHT22;6287;50.984;7.022;2024-01-30T10:12:15;10.90;99.90
12446;DHT22;6287;50.984;7.022;2024-01-30T10:14:43;11.00;99.90
12446;DHT22;6287;50.984;7.022;2024-01-30T10:17:10;11.10;99.90
12446;DHT22;6287;50.984;7.022;2024-01-30T10:19:40;11.10;99.90
12446;DHT22;6287;50.984;7.022;2024-01-30T10:22:06;11.20;99.90
12446;DHT22;6287;50.984;7.022;2024-01-30T10:24:33;11.20;99.90
12446;DHT22;6287;50.984;7.022;2024-01-30T10:27:01;11.30;99.90
12446;DHT22;6287;50.984;7.022;2024-01-30T10:29:28;11.50;99.90
12446;DHT22;6287;50.984;7.022;2024-01-30T10:32:05;11.50;99.90
12446;DHT22;6287;50.984;7.022;2024-01-30T10:34:31;11.70;99.90
12446;DHT22;6287;50.984;7.022;2024-01-30T10:39:29;11.80;99.90
12446;DHT22;6287;50.984;7.022;2024-01-30T10:42:04;11.70;99.90
12446;DHT22;6287;50.984;7.022;2024-01-30T10:45:20;11.70;99.90
12446;DHT22;6287;50.984;7.022;2024-01-30T10:47:28;11.60;99.90
12446;DHT22;6287;50.984;7.022;2024-01-30T10:49:57;11.60;99.90
12446;DHT22;6287;50.984;7.022;2024-01-30T10:52:23;11.50;99.90
12446;DHT22;6287;50.984;7.022;2024-01-30T10:54:51;11.60;99.90
12446;DHT22;6287;50.984;7.022;2024-01-30T10:57:20;11.60;99.90
12446;DHT22;6287;50.984;7.022;2024-01-30T10:59:48;11.80;99.90
12446;DHT22;6287;50.984;7.022;2024-01-30T11:02:14;11.80;99.90
12446;DHT22;6287;50.984;7.022;2024-01-30T11:04:41;11.80;99.90
12446;DHT22;6287;50.984;7.022;2024-01-30T11:07:26;11.90;99.90
12446;DHT22;6287;50.984;7.022;2024-01-30T11:09:54;11.90;99.90
12446;DHT22;6287;50.984;7.022;2024-01-30T11:12:28;12.00;99.90
12446;DHT22;6287;50.984;7.022;2024-01-30T11:20:31;12.10;99.90
12446;DHT22;6287;50.984;7.022;2024-01-30T11:22:57;12.10;99.90
12446;DHT22;6287;50.984;7.022;2024-01-30T11:25:27;12.10;99.90
12446;DHT22;6287;50.984;7.022;2024-01-30T11:27:56;12.20;99.90
12446;DHT22;6287;50.984;7.022;2024-01-30T11:35:35;12.30;99.90
12446;DHT22;6287;50.984;7.022;2024-01-30T11:38:05;12.40;99.90
12446;DHT22;6287;50.984;7.022;2024-01-30T11:40:31;12.40;99.90
12446;DHT22;6287;50.984;7.022;2024-01-30T11:42:59;12.40;99.90
12446;DHT22;6287;50.984;7.022;2024-01-30T11:45:30;12.60;99.90
12446;DHT22;6287;50.984;7.022;2024-01-30T11:47:57;12.70;99.90
12446;DHT22;6287;50.984;7.022;2024-01-30T11:50:27;12.60;99.90
12446;DHT22;6287;50.984;7.022;2024-01-30T11:52:55;12.80;99.90
12446;DHT22;6287;50.984;7.022;2024-01-30T11:55:22;12.90;99.90
12446;DHT22;6287;50.984;7.022;2024-01-30T11:57:53;12.90;99.90
12446;DHT22;6287;50.984;7.022;2024-01-30T12:00:25;13.00;99.90
12446;DHT22;6287;50.984;7.022;2024-01-30T12:02:56;13.00;99.90
12446;DHT22;6287;50.984;7.022;2024-01-30T12:05:28;13.00;99.90
12446;DHT22;6287;50.984;7.022;2024-01-30T12:07:54;13.00;99.90
12446;DHT22;6287;50.984;7.022;2024-01-30T12:10:24;13.10;99.90
12446;DHT22;6287;50.984;7.022;2024-01-30T12:12:50;13.10;99.90
12446;DHT22;6287;50.984;7.022;2024-01-30T12:15:16;13.10;99.90
12446;DHT22;6287;50.984;7.022;2024-01-30T12:17:43;13.20;99.90
12446;DHT22;6287;50.984;7.022;2024-01-30T12:20:21;13.20;99.90
12446;DHT22;6287;50.984;7.022;2024-01-30T12:22:48;13.20;99.90
12446;DHT22;6287;50.984;7.022;2024-01-30T12:25:17;13.10;99.90
12446;DHT22;6287;50.984;7.022;2024-01-30T12:27:45;13.10;99.90
12446;DHT22;6287;50.984;7.022;2024-01-30T12:30:13;13.20;99.90
12446;DHT22;6287;50.984;7.022;2024-01-30T12:32:46;13.20;99.90
12446;DHT22;6287;50.984;7.022;2024-01-30T12:35:18;13.20;99.90
12446;DHT22;6287;50.984;7.022;2024-01-30T12:37:47;13.20;99.90
12446;DHT22;6287;50.984;7.022;2024-01-30T12:40:14;13.30;99.90
12446;DHT22;6287;50.984;7.022;2024-01-30T12:42:41;13.40;99.90
12446;DHT22;6287;50.984;7.022;2024-01-30T12:45:13;13.60;99.90
12446;DHT22;6287;50.984;7.022;2024-01-30T12:47:41;13.60;99.90
12446;DHT22;6287;50.984;7.022;2024-01-30T12:50:12;13.70;99.90
12446;DHT22;6287;50.984;7.022;2024-01-30T12:52:41;13.80;99.90
12446;DHT22;6287;50.984;7.022;2024-01-30T12:55:09;13.80;99.90
12446;DHT22;6287;50.984;7.022;2024-01-30T12:57:35;14.00;99.90
12446;DHT22;6287;50.984;7.022;2024-01-30T13:00:00;14.10;99.90
12446;DHT22;6287;50.984;7.022;2024-01-30T13:02:26;14.20;99.90
12446;DHT22;6287;50.984;7.022;2024-01-30T13:04:55;14.20;99.90
12446;DHT22;6287;50.984;7.022;2024-01-30T13:07:23;14.20;99.90
12446;DHT22;6287;50.984;7.022;2024-01-30T13:09:49;14.20;99.90
12446;DHT22;6287;50.984;7.022;2024-01-30T13:12:15;14.10;99.90
12446;DHT22;6287;50.984;7.022;2024-01-30T13:14:43;14.10;99.90
12446;DHT22;6287;50.984;7.022;2024-01-30T13:17:08;14.00;99.90
12446;DHT22;6287;50.984;7.022;2024-01-30T13:19:36;14.00;99.90
12446;DHT22;6287;50.984;7.022;2024-01-30T13:22:02;14.00;99.90
12446;DHT22;6287;50.984;7.022;2024-01-30T13:24:30;14.00;99.90
12446;DHT22;6287;50.984;7.022;2024-01-30T13:26:55;14.00;99.90
12446;DHT22;6287;50.984;7.022;2024-01-30T13:29:23;14.00;99.90
12446;DHT22;6287;50.984;7.022;2024-01-30T13:31:49;14.00;99.90
12446;DHT22;6287;50.984;7.022;2024-01-30T13:34:14;13.90;99.90
12446;DHT22;6287;50.984;7.022;2024-01-30T13:36:42;13.90;99.90
12446;DHT22;6287;50.984;7.022;2024-01-30T13:39:09;13.80;99.90
12446;DHT22;6287;50.984;7.022;2024-01-30T13:41:41;13.70;99.90
12446;DHT22;6287;50.984;7.022;2024-01-30T13:44:06;13.60;99.90
12446;DHT22;6287;50.984;7.022;2024-01-30T13:46:32;13.60;99.90
12446;DHT22;6287;50.984;7.022;2024-01-30T13:48:58;13.50;99.90
12446;DHT22;6287;50.984;7.022;2024-01-30T13:51:23;13.40;99.90
12446;DHT22;6287;50.984;7.022;2024-01-30T13:53:49;13.40;99.90
12446;DHT22;6287;50.984;7.022;2024-01-30T13:56:17;13.30;99.90
12446;DHT22;6287;50.984;7.022;2024-01-30T13:58:42;13.20;99.90
12446;DHT22;6287;50.984;7.022;2024-01-30T14:01:13;13.20;99.90
12446;DHT22;6287;50.984;7.022;2024-01-30T14:03:41;13.20;99.90
12446;DHT22;6287;50.984;7.022;2024-01-30T14:06:07;13.20;99.90
12446;DHT22;6287;50.984;7.022;2024-01-30T14:08:35;13.10;99.90
12446;DHT22;6287;50.984;7.022;2024-01-30T14:11:01;13.10;99.90
12446;DHT22;6287;50.984;7.022;2024-01-30T14:13:28;13.10;99.90
12446;DHT22;6287;50.984;7.022;2024-01-30T14:15:57;13.00;99.90
12446;DHT22;6287;50.984;7.022;2024-01-30T14:18:22;13.00;99.90
12446;DHT22;6287;50.984;7.022;2024-01-30T14:20:53;13.00;99.90
12446;DHT22;6287;50.984;7.022;2024-01-30T14:23:24;12.90;99.90
12446;DHT22;6287;50.984;7.022;2024-01-30T14:25:54;12.90;99.90
12446;DHT22;6287;50.984;7.022;2024-01-30T14:28:22;12.90;99.90
12446;DHT22;6287;50.984;7.022;2024-01-30T14:30:48;12.90;99.90
12446;DHT22;6287;50.984;7.022;2024-01-30T14:33:16;12.80;99.90
12446;DHT22;6287;50.984;7.022;2024-01-30T14:35:46;12.80;99.90
12446;DHT22;6287;50.984;7.022;2024-01-30T14:38:12;12.80;99.90
12446;DHT22;6287;50.984;7.022;2024-01-30T14:40:39;12.90;99.90
12446;DHT22;6287;50.984;7.022;2024-01-30T14:43:04;12.90;99.90
12446;DHT22;6287;50.984;7.022;2024-01-30T14:45:30;12.90;99.90
12446;DHT22;6287;50.984;7.022;2024-01-30T14:48:01;12.80;99.90
12446;DHT22;6287;50.984;7.022;2024-01-30T14:50:27;12.80;99.90
12446;DHT22;6287;50.984;7.022;2024-01-30T14:52:53;12.90;99.90
12446;DHT22;6287;50.984;7.022;2024-01-30T14:55:19;12.90;99.90
12446;DHT22;6287;50.984;7.022;2024-01-30T14:57:47;12.90;99.90
12446;DHT22;6287;50.984;7.022;2024-01-30T15:00:17;12.80;99.90
12446;DHT22;6287;50.984;7.022;2024-01-30T15:02:44;12.80;99.90
12446;DHT22;6287;50.984;7.022;2024-01-30T15:05:12;12.80;99.90
12446;DHT22;6287;50.984;7.022;2024-01-30T15:07:43;12.70;99.90
12446;DHT22;6287;50.984;7.022;2024-01-30T15:10:09;12.70;99.90
12446;DHT22;6287;50.984;7.022;2024-01-30T15:12:37;12.70;99.90
12446;DHT22;6287;50.984;7.022;2024-01-30T15:15:07;12.70;99.90
12446;DHT22;6287;50.984;7.022;2024-01-30T15:17:35;12.60;99.90
12446;DHT22;6287;50.984;7.022;2024-01-30T15:20:01;12.70;99.90
12446;DHT22;6287;50.984;7.022;2024-01-30T15:22:31;12.70;99.90
12446;DHT22;6287;50.984;7.022;2024-01-30T15:25:00;12.60;99.90
12446;DHT22;6287;50.984;7.022;2024-01-30T15:27:28;12.60;99.90
12446;DHT22;6287;50.984;7.022;2024-01-30T15:29:57;12.60;99.90
12446;DHT22;6287;50.984;7.022;2024-01-30T15:32:22;12.60;99.90
12446;DHT22;6287;50.984;7.022;2024-01-30T15:34:50;12.50;99.90
12446;DHT22;6287;50.984;7.022;2024-01-30T15:37:23;12.50;99.90
12446;DHT22;6287;50.984;7.022;2024-01-30T15:39:51;12.60;99.90
12446;DHT22;6287;50.984;7.022;2024-01-30T15:42:19;12.50;99.90
12446;DHT22;6287;50.984;7.022;2024-01-30T15:44:49;12.50;99.90
12446;DHT22;6287;50.984;7.022;2024-01-30T15:47:15;12.50;99.90
12446;DHT22;6287;50.984;7.022;2024-01-30T15:49:42;12.60;99.90
12446;DHT22;6287;50.984;7.022;2024-01-30T15:52:08;12.60;99.90
12446;DHT22;6287;50.984;7.022;2024-01-30T15:54:41;12.60;99.90
12446;DHT22;6287;50.984;7.022;2024-01-30T15:57:09;12.50;99.90
12446;DHT22;6287;50.984;7.022;2024-01-30T15:59:36;12.50;99.90
12446;DHT22;6287;50.984;7.022;2024-01-30T16:02:02;12.50;99.90
12446;DHT22;6287;50.984;7.022;2024-01-30T16:04:28;12.50;99.90
12446;DHT22;6287;50.984;7.022;2024-01-30T16:06:56;12.40;99.90
12446;DHT22;6287;50.984;7.022;2024-01-30T16:09:25;12.40;99.90
12446;DHT22;6287;50.984;7.022;2024-01-30T16:11:53;12.30;99.90
12446;DHT22;6287;50.984;7.022;2024-01-30T16:14:19;12.10;99.90
12446;DHT22;6287;50.984;7.022;2024-01-30T16:16:44;12.10;99.90
12446;DHT22;6287;50.984;7.022;2024-01-30T16:19:12;11.90;99.90
12446;DHT22;6287;50.984;7.022;2024-01-30T16:21:38;11.90;99.90
12446;DHT22;6287;50.984;7.022;2024-01-30T16:24:09;11.70;99.90
12446;DHT22;6287;50.984;7.022;2024-01-30T16:26:37;11.60;99.90
12446;DHT22;6287;50.984;7.022;2024-01-30T16:31:31;11.50;99.90
12446;DHT22;6287;50.984;7.022;2024-01-30T16:36:27;11.40;99.90
12446;DHT22;6287;50.984;7.022;2024-01-30T16:38:55;11.30;99.90
12446;DHT22;6287;50.984;7.022;2024-01-30T16:41:24;11.30;99.90
12446;DHT22;6287;50.984;7.022;2024-01-30T16:43:52;11.30;99.90
12446;DHT22;6287;50.984;7.022;2024-01-30T16:46:20;11.30;99.90
12446;DHT22;6287;50.984;7.022;2024-01-30T16:48:47;11.20;99.90
12446;DHT22;6287;50.984;7.022;2024-01-30T16:51:14;11.20;99.90
12446;DHT22;6287;50.984;7.022;2024-01-30T16:53:43;11.20;99.90
12446;DHT22;6287;50.984;7.022;2024-01-30T16:56:09;11.20;99.90
12446;DHT22;6287;50.984;7.022;2024-01-30T16:58:39;11.20;99.90
12446;DHT22;6287;50.984;7.022;2024-01-30T17:03:33;11.10;99.90
12446;DHT22;6287;50.984;7.022;2024-01-30T17:06:01;11.10;99.90
12446;DHT22;6287;50.984;7.022;2024-01-30T17:08:32;11.10;99.90
12446;DHT22;6287;50.984;7.022;2024-01-30T17:11:00;11.00;99.90
12446;DHT22;6287;50.984;7.022;2024-01-30T17:13:26;11.00;99.90
12446;DHT22;6287;50.984;7.022;2024-01-30T17:15:51;11.00;99.90
12446;DHT22;6287;50.984;7.022;2024-01-30T17:18:17;11.10;99.90
12446;DHT22;6287;50.984;7.022;2024-01-30T17:20:46;11.00;99.90
12446;DHT22;6287;50.984;7.022;2024-01-30T17:23:16;10.90;99.90